Airfield :
LOGIN :

Register | Disclaimer

   EN    FR    IT 

 










Legend :    VFR   Marginal VFR   IFR   Intensive IFR   Very Intensive IFR
Visi :
Ceiling :
>= 8 km
>= 3000ft
5 to 8 km
1000 to 3000 ft
1500m to 5 km
500 to 1000 ft
800 to 1500m
200 to 500 ft
< 800m
< 200 ft
Symbols :   Thunderstorms  Fog  Heavy snow  Heavy precipitations  Wind > 20 kt
SIGMETs :     Misc.  Thunderstorms  Icing  Turbulence  Mountain Waves  Volcanic Ashes






- Airport Elevation : 299 ft
- IATA code : EDM


LFRI - La Roche Sur Yon - Les Ajoncs

CURRENT METAR :
  • 070630Z AUTO 36008KT CAVOK 16/14 Q1028 NOSIG

EXPIRED METARs :
  • 070600Z AUTO 01007KT CAVOK 15/13 Q1028 NOSIG
  • 070530Z AUTO 36005KT CAVOK 15/13 Q1028 NOSIG
  • 070500Z AUTO 01005KT CAVOK 14/12 Q1027
  • 070430Z AUTO 01006KT CAVOK 13/12 Q1027
  • 070400Z AUTO 01007KT CAVOK 14/13 Q1027

TAF TAF LFRI
Valid from the 07 at 06:00 until the 08 at 06:00 UTC


070500Z 0706/0806 01005KT CAVOK
TEMPO 0716/0720 31012KT
BECMG 0803/0806 07010KT



MET'MAP, your aeronautical weather chart ! - Copyright ORBIFLY December 2007 - Disclaimer

ORBIFLY MET'MAP TEAM :

Programming & Development : Alexandra Zaïnal
Original concept : Baudouin d'Aumeries
Technical & hardware support : Manuel Goepfert
Assistance : Marc-Olivier Méhu




SOURCES & CREDITS :

   NOAA